Time;durP1;ratioP1;P1;durP2;ratioP2;P2;SDS_P1;SDS_P2;PMS_P1;PMS_P2;Temp;Humidity;BMP_temperature;BMP_pressure;BME280_temperature;BME280_humidity;BME280_pressure;Samples;Min_cycle;Max_cycle;Signal;HPM_P1;HPM_P2
2022/11/05 00:11:17;;;;;;;14.68;8.53;;;;;;;7.59;91.15;98794.18;1649663;85;20946;-65
2022/11/05 00:16:43;;;;;;;13.68;8.60;;;;;;;7.53;91.21;98792.33;1656132;85;21622;-65
2022/11/05 00:19:10;;;;;;;11.78;7.30;;;;;;;7.51;91.19;98795.48;1644708;85;20901;-65
2022/11/05 00:27:09;;;;;;;17.45;9.85;;;;;;;7.44;91.37;98794.92;1652572;85;20987;-65
2022/11/05 00:29:36;;;;;;;14.03;8.70;;;;;;;7.42;91.37;98797.20;1649324;85;21470;-65
2022/11/05 00:32:03;;;;;;;13.10;9.15;;;;;;;7.40;91.62;98798.14;1651606;85;21059;-65
2022/11/05 00:34:29;;;;;;;14.85;8.73;;;;;;;7.36;91.55;98799.19;1649980;85;20944;-65
2022/11/05 00:36:56;;;;;;;12.30;9.65;;;;;;;7.33;91.55;98807.13;1658448;85;22054;-65
2022/11/05 00:39:23;;;;;;;10.38;8.25;;;;;;;7.31;91.71;98807.69;1659498;85;21628;-65
2022/11/05 00:44:58;;;;;;;11.33;7.97;;;;;;;7.29;91.76;98801.72;1654316;85;20973;-65
2022/11/05 00:49:47;;;;;;;10.50;8.33;;;;;;;7.24;91.96;98806.28;1660628;85;21110;-65
2022/11/05 00:54:59;;;;;;;14.75;8.90;;;;;;;7.16;92.30;98800.16;1651625;85;20962;-65
2022/11/05 00:57:26;;;;;;;13.95;8.40;;;;;;;7.14;92.24;98794.22;1653768;85;20956;-65
2022/11/05 00:59:52;;;;;;;12.07;8.60;;;;;;;7.12;92.36;98794.74;1672209;85;21498;-65
2022/11/05 01:02:19;;;;;;;12.80;9.03;;;;;;;7.11;92.43;98798.69;1667906;85;21435;-65
2022/11/05 01:04:46;;;;;;;13.22;8.83;;;;;;;7.11;92.52;98793.50;1672231;85;20929;-65
2022/11/05 01:07:12;;;;;;;11.20;8.53;;;;;;;7.09;92.55;98788.86;1661532;84;20917;-65
2022/11/05 01:09:39;;;;;;;14.63;9.35;;;;;;;7.09;92.60;98792.76;1662338;85;21440;-65
2022/11/05 01:12:06;;;;;;;13.62;8.95;;;;;;;7.09;92.67;98797.95;1654071;85;20939;-65
2022/11/05 01:14:32;;;;;;;9.83;8.63;;;;;;;7.09;92.75;98796.65;1659674;85;21083;-65
2022/11/05 01:16:59;;;;;;;16.73;9.07;;;;;;;7.10;92.77;98797.02;1666278;85;21681;-65
2022/11/05 01:19:26;;;;;;;13.22;9.88;;;;;;;7.10;92.91;98794.42;1659147;85;20952;-65
2022/11/05 01:21:53;;;;;;;19.25;10.43;;;;;;;7.10;92.87;98791.83;1669467;85;20979;-65
2022/11/05 01:24:20;;;;;;;12.30;9.80;;;;;;;7.12;92.93;98790.02;1658209;85;21466;-65
2022/11/05 01:26:46;;;;;;;11.83;10.00;;;;;;;7.11;92.93;98788.31;1654296;85;21939;-65
2022/11/05 01:29:13;;;;;;;11.08;9.93;;;;;;;7.13;93.00;98782.13;1651712;85;20954;-65
2022/11/05 01:31:40;;;;;;;12.03;9.27;;;;;;;7.14;92.96;98777.77;1663435;85;21482;-65
2022/11/05 01:34:06;;;;;;;10.13;8.93;;;;;;;7.16;92.99;98779.38;1672972;85;20953;-65
2022/11/05 01:36:33;;;;;;;10.78;8.18;;;;;;;7.15;93.01;98778.18;1659259;85;20988;-65
2022/11/05 01:39:00;;;;;;;11.13;9.80;;;;;;;7.15;93.05;98779.48;1670753;85;21870;-65
2022/11/05 01:41:27;;;;;;;15.68;8.20;;;;;;;7.14;93.12;98774.75;1657096;85;20961;-65
2022/11/05 01:43:58;;;;;;;11.60;8.80;;;;;;;7.16;93.09;98774.66;1668168;85;20973;-65
2022/11/05 01:46:39;;;;;;;13.38;9.45;;;;;;;7.16;93.09;98774.66;1660924;85;21455;-65
2022/11/05 01:49:20;;;;;;;11.05;8.58;;;;;;;7.15;93.26;98772.98;1659795;85;21486;-66
2022/11/05 01:51:47;;;;;;;13.20;9.23;;;;;;;7.15;93.28;98771.69;1666173;85;21142;-65
2022/11/05 01:54:18;;;;;;;10.25;8.73;;;;;;;7.12;93.33;98773.14;1666817;85;21715;-65
2022/11/05 01:56:55;;;;;;;9.78;8.50;;;;;;;7.12;93.39;98779.63;1653888;84;21522;-65
2022/11/05 01:59:32;;;;;;;10.53;8.50;;;;;;;7.11;93.49;98781.82;1637777;85;20982;-65
2022/11/05 02:02:00;;;;;;;;;;;;;;;7.09;93.52;98771.98;1658273;85;20952;-65
2022/11/05 02:04:37;;;;;;;10.58;8.75;;;;;;;7.08;93.58;98772.89;1654898;85;21159;-65
2022/11/05 02:07:07;;;;;;;9.53;8.15;;;;;;;7.05;93.68;98773.03;1667382;85;20944;-65
2022/11/05 02:10:00;;;;;;;9.68;8.68;;;;;;;7.05;93.75;98773.03;1663233;85;21041;-65
2022/11/05 02:12:28;;;;;;;9.68;8.68;;;;;;;7.05;93.78;98767.84;1656161;85;21466;-65
2022/11/05 02:14:56;;;;;;;9.20;7.40;;;;;;;7.04;93.81;98760.52;1666987;85;20945;-65
2022/11/05 02:18:12;;;;;;;10.05;7.35;;;;;;;7.04;93.88;98762.28;1654136;85;21127;-65
2022/11/05 02:20:46;;;;;;;8.38;7.45;;;;;;;7.04;93.89;98759.69;1665426;85;20913;-65
2022/11/05 02:23:24;;;;;;;10.72;7.53;;;;;;;7.03;94.02;98763.17;1655058;84;20956;-65
2022/11/05 02:26:29;;;;;;;7.78;6.78;;;;;;;7.02;94.16;98770.59;1655443;85;20945;-65
2022/11/05 02:29:13;;;;;;;8.75;7.60;;;;;;;7.03;94.22;98764.47;1647158;86;21532;-66
2022/11/05 02:32:06;;;;;;;8.25;6.97;;;;;;;7.03;94.30;98759.28;1618192;85;21160;-65
2022/11/05 02:34:50;;;;;;;8.38;6.60;;;;;;;7.02;94.34;98766.70;1644934;86;20879;-65
2022/11/05 02:37:33;;;;;;;6.85;6.22;;;;;;;7.01;94.46;98763.73;1638243;86;21497;-65
2022/11/05 02:40:20;;;;;;;7.60;6.20;;;;;;;7.01;94.50;98754.64;1652968;86;20895;-65
2022/11/05 02:43:14;;;;;;;6.90;6.20;;;;;;;7.03;94.61;98756.69;1650423;86;20951;-65
2022/11/05 02:46:01;;;;;;;6.65;6.05;;;;;;;7.02;94.63;98761.50;1636125;85;21067;-65
2022/11/05 02:48:39;;;;;;;6.33;5.72;;;;;;;7.02;94.73;98766.23;1647614;85;20946;-65
2022/11/05 02:51:19;;;;;;;6.47;5.80;;;;;;;7.04;94.83;98767.47;1638045;86;20974;-65
2022/11/05 02:53:54;;;;;;;9.80;5.58;;;;;;;7.05;94.77;98760.05;1633923;86;20966;-65
2022/11/05 02:56:28;;;;;;;6.72;6.03;;;;;;;7.05;94.70;98753.10;1647148;86;21563;-65
2022/11/05 02:58:55;;;;;;;6.87;6.17;;;;;;;7.07;94.77;98758.23;1637908;86;21234;-65
2022/11/05 03:01:21;;;;;;;6.45;5.85;;;;;;;7.09;94.67;98747.33;1651273;86;20954;-65
2022/11/05 03:03:55;;;;;;;6.78;5.83;;;;;;;7.08;94.72;98754.72;1663309;85;21448;-65
2022/11/05 03:06:45;;;;;;;5.55;5.00;;;;;;;7.07;94.87;98751.28;1669682;84;20965;-65
2022/11/05 03:09:35;;;;;;;5.97;5.28;;;;;;;7.06;94.98;98748.78;1662646;85;21123;-65
2022/11/05 03:12:24;;;;;;;5.45;4.95;;;;;;;7.04;95.13;98743.65;1668638;85;21907;-65
2022/11/05 03:15:11;;;;;;;7.20;5.08;;;;;;;7.03;95.17;98752.80;1656881;85;21605;-65
2022/11/05 03:18:08;;;;;;;6.03;5.42;;;;;;;7.03;95.24;98752.80;1668496;85;20870;-65
2022/11/05 03:21:06;;;;;;;5.53;5.03;;;;;;;7.05;95.27;98767.84;1671753;85;20918;-65
2022/11/05 03:23:57;;;;;;;6.05;4.95;;;;;;;7.02;95.30;98756.31;1666892;84;21557;-65
2022/11/05 03:26:38;;;;;;;5.37;4.90;;;;;;;7.02;95.37;98755.02;1655836;85;21055;-65
2022/11/05 03:29:08;;;;;;;5.25;4.40;;;;;;;7.03;95.42;98757.98;1660496;85;20929;-65
2022/11/05 03:31:38;;;;;;;5.00;4.60;;;;;;;7.04;95.46;98761.81;1666433;84;20944;-65
2022/11/05 03:34:07;;;;;;;6.55;4.50;;;;;;;7.06;95.51;98765.66;1666816;85;20881;-65
2022/11/05 03:36:40;;;;;;;5.28;4.55;;;;;;;7.06;95.56;98772.14;1658846;85;20940;-66
2022/11/05 03:39:12;;;;;;;5.70;5.10;;;;;;;7.09;95.58;98775.88;1654131;85;21090;-65
2022/11/05 03:41:42;;;;;;;4.87;4.37;;;;;;;7.11;95.60;98775.33;1651097;85;20936;-65
2022/11/05 03:44:12;;;;;;;5.10;4.60;;;;;;;7.12;95.59;98777.03;1651370;85;21032;-65
2022/11/05 03:46:44;;;;;;;5.30;4.28;;;;;;;7.13;95.66;98768.31;1649945;85;21470;-65
2022/11/05 03:49:15;;;;;;;5.87;5.08;;;;;;;7.14;95.63;98772.58;1661120;85;20950;-65
2022/11/05 03:51:56;;;;;;;4.97;4.47;;;;;;;7.13;95.70;98768.31;1653045;85;21722;-65
2022/11/05 03:54:23;;;;;;;3.87;3.50;;;;;;;7.13;95.74;98776.11;1648381;84;20973;-65
2022/11/05 03:57:10;;;;;;;5.87;4.07;;;;;;;7.16;95.85;98775.95;1666676;85;20966;-65
2022/11/05 03:59:47;;;;;;;4.83;4.15;;;;;;;7.16;95.92;98778.55;1655032;84;20882;-65
2022/11/05 04:02:16;;;;;;;5.08;4.58;;;;;;;7.17;95.91;98777.66;1662007;85;21016;-66
2022/11/05 04:04:43;;;;;;;4.20;3.80;;;;;;;7.17;95.92;98777.66;1662016;85;21115;-65
2022/11/05 04:15:28;;;;;;;3.85;3.42;;;;;;;7.20;96.04;98774.91;1649206;85;20945;-65
2022/11/05 04:17:57;;;;;;;3.10;2.70;;;;;;;7.21;96.00;98771.39;1656648;85;21111;-65
2022/11/05 04:25:55;;;;;;;5.17;3.25;;;;;;;7.23;96.12;98770.86;1648604;85;21026;-65
2022/11/05 04:30:17;;;;;;;3.10;2.83;;;;;;;7.23;96.19;98776.05;1660350;85;21016;-65
2022/11/05 04:30:50;;;;;;;3.22;2.92;;;;;;;7.24;96.20;98773.83;1648173;85;21114;-65
2022/11/05 04:33:17;;;;;;;3.15;2.83;;;;;;;7.25;96.24;98783.28;1648246;85;20913;-65
2022/11/05 04:35:48;;;;;;;3.87;3.47;;;;;;;7.26;96.28;98784.98;1648758;85;21162;-65
2022/11/05 04:38:19;;;;;;;4.65;3.22;;;;;;;7.27;96.32;98782.77;1660409;85;21475;-65
2022/11/05 04:40:47;;;;;;;4.33;3.58;;;;;;;7.30;96.42;98791.70;1665221;84;20910;-66
2022/11/05 04:43:16;;;;;;;3.60;3.20;;;;;;;7.30;96.41;98782.61;1663934;84;21511;-65
2022/11/05 04:45:44;;;;;;;2.83;2.50;;;;;;;7.32;96.42;98784.69;1649795;85;20953;-65
2022/11/05 04:48:11;;;;;;;2.80;2.50;;;;;;;7.33;96.40;98783.75;1648766;85;20921;-65
2022/11/05 04:50:38;;;;;;;2.35;2.15;;;;;;;7.33;96.33;98781.16;1663085;85;20913;-65
2022/11/05 04:53:04;;;;;;;3.42;3.00;;;;;;;7.28;96.40;98783.16;1665318;85;20957;-65
2022/11/05 04:55:31;;;;;;;3.22;2.80;;;;;;;7.29;96.55;98779.64;1674263;85;21100;-65
2022/11/05 04:57:58;;;;;;;2.75;2.55;;;;;;;7.30;96.57;98783.91;1669218;85;21001;-65
2022/11/05 05:00:24;;;;;;;3.17;2.87;;;;;;;7.29;96.51;98782.23;1653765;85;21527;-65
2022/11/05 05:02:51;;;;;;;6.58;2.80;;;;;;;7.28;96.57;98788.36;1654217;85;20866;-65
2022/11/05 05:05:18;;;;;;;4.58;3.83;;;;;;;7.29;96.66;98790.03;1648853;85;20948;-65
2022/11/05 05:07:44;;;;;;;3.15;2.85;;;;;;;7.33;96.49;98786.35;1650977;85;22272;-65
2022/11/05 05:10:11;;;;;;;4.03;3.60;;;;;;;7.33;96.67;98792.84;1656916;85;20901;-65
2022/11/05 05:12:38;;;;;;;4.42;3.80;;;;;;;7.36;96.71;98793.16;1653261;84;20930;-65
2022/11/05 05:15:06;;;;;;;5.33;4.30;;;;;;;7.38;96.72;98794.77;1652034;85;20986;-65
2022/11/05 05:17:32;;;;;;;4.12;3.72;;;;;;;7.40;96.69;98799.44;1651034;85;21522;-65
2022/11/05 05:22:54;;;;;;;4.15;3.55;;;;;;;7.43;96.70;98811.89;1650933;85;20941;-65
2022/11/05 05:25:22;;;;;;;5.47;3.80;;;;;;;7.44;96.77;98812.27;1657712;85;20885;-65
2022/11/05 05:27:49;;;;;;;3.27;2.98;;;;;;;7.46;97.21;98819.53;1656164;85;21640;-65
2022/11/05 05:30:16;;;;;;;3.70;3.15;;;;;;;7.46;97.06;98817.77;1652239;85;20898;-65
2022/11/05 05:32:43;;;;;;;3.90;3.25;;;;;;;7.47;96.99;98826.41;1658582;85;21198;-65
2022/11/05 05:35:10;;;;;;;4.10;3.55;;;;;;;7.50;96.75;98826.25;1656625;85;20981;-65
2022/11/05 05:37:37;;;;;;;3.33;3.02;;;;;;;7.50;96.80;98821.89;1661772;85;20937;-66
2022/11/05 05:40:07;;;;;;;2.62;2.40;;;;;;;7.51;97.00;98827.95;1652667;85;20929;-65
2022/11/05 05:42:36;;;;;;;3.35;3.05;;;;;;;7.50;96.92;98830.98;1653076;85;21499;-65
2022/11/05 05:45:03;;;;;;;2.80;2.60;;;;;;;7.55;96.88;98830.77;1661334;85;21090;-65
2022/11/05 05:47:29;;;;;;;3.77;3.45;;;;;;;7.54;96.78;98830.39;1659874;85;21485;-65
2022/11/05 05:49:56;;;;;;;3.02;2.75;;;;;;;7.54;96.96;98820.00;1663001;85;20898;-65
2022/11/05 05:52:22;;;;;;;2.92;2.65;;;;;;;7.54;97.13;98827.33;1666909;85;21418;-65
2022/11/05 05:54:49;;;;;;;4.83;3.40;;;;;;;7.56;96.90;98828.54;1651378;85;21048;-65
2022/11/05 05:57:16;;;;;;;3.53;3.23;;;;;;;7.56;96.90;98828.54;1659470;85;21097;-66
2022/11/05 05:59:42;;;;;;;6.40;4.20;;;;;;;7.59;97.16;98838.34;1664570;85;20983;-66
2022/11/05 06:02:11;;;;;;;3.40;3.10;;;;;;;7.60;97.21;98830.09;1664136;84;21692;-65
2022/11/05 06:04:38;;;;;;;4.17;3.65;;;;;;;7.59;97.08;98834.91;1658029;84;21452;-65
2022/11/05 06:07:04;;;;;;;3.50;3.20;;;;;;;7.59;97.09;98838.80;1658985;85;21016;-65
2022/11/05 06:09:31;;;;;;;3.50;3.20;;;;;;;7.60;97.18;98841.78;1672008;85;21053;-66
2022/11/05 06:11:57;;;;;;;3.83;3.52;;;;;;;7.60;97.21;98845.67;1653015;85;20913;-66
2022/11/05 06:14:24;;;;;;;3.62;3.33;;;;;;;7.61;97.21;98847.34;1659285;84;20929;-65
2022/11/05 06:16:51;;;;;;;3.37;3.08;;;;;;;7.62;97.24;98848.58;1656006;85;20958;-65
2022/11/05 06:19:18;;;;;;;3.52;3.22;;;;;;;7.63;97.25;98854.15;1660599;85;20878;-65
2022/11/05 06:21:45;;;;;;;4.33;3.45;;;;;;;7.64;97.30;98851.09;1663245;85;21021;-65
2022/11/05 06:24:11;;;;;;;4.17;3.65;;;;;;;7.66;97.31;98858.36;1659013;85;20954;-65
2022/11/05 06:26:41;;;;;;;4.30;3.90;;;;;;;7.67;97.38;98860.03;1669378;84;21018;-65
2022/11/05 06:29:07;;;;;;;3.33;3.02;;;;;;;7.69;97.51;98864.70;1660449;85;21033;-65
2022/11/05 06:31:33;;;;;;;4.23;3.30;;;;;;;7.72;97.52;98870.20;1657044;85;21004;-65
2022/11/05 06:34:00;;;;;;;3.67;3.37;;;;;;;7.74;97.61;98871.81;1657460;84;21042;-65
2022/11/05 06:36:27;;;;;;;3.17;2.97;;;;;;;7.76;97.52;98873.05;1673201;85;20913;-65
2022/11/05 06:38:53;;;;;;;3.57;3.27;;;;;;;7.78;97.69;98868.14;1665476;85;20972;-65
2022/11/05 06:41:20;;;;;;;3.40;3.10;;;;;;;7.80;97.67;98874.11;1656970;85;20944;-64
2022/11/05 06:43:46;;;;;;;4.53;4.03;;;;;;;7.81;97.58;98873.21;1656189;85;20967;-65
2022/11/05 06:46:13;;;;;;;3.92;3.62;;;;;;;7.84;97.69;98876.95;1665001;85;21024;-66
2022/11/05 06:48:40;;;;;;;4.80;4.40;;;;;;;7.88;97.70;98878.09;1675281;85;21032;-65
2022/11/05 06:51:07;;;;;;;4.00;3.60;;;;;;;7.97;97.43;98890.63;1666267;84;20959;-65
2022/11/05 06:53:34;;;;;;;;;;;;;;;8.01;97.39;98892.14;1651060;86;20921;-64
2022/11/05 06:56:03;;;;;;;5.35;4.45;;;;;;;8.03;97.48;98895.52;1669239;85;20107;-65
2022/11/05 06:58:30;;;;;;;4.30;3.90;;;;;;;8.08;97.39;98887.03;1666842;84;21167;-65
2022/11/05 07:01:04;;;;;;;3.90;3.50;;;;;;;8.07;97.24;98890.56;1672352;85;20874;-64
2022/11/05 07:03:30;;;;;;;3.77;3.47;;;;;;;8.14;97.29;98890.62;1669761;84;20956;-64
2022/11/05 07:05:59;;;;;;;4.25;3.83;;;;;;;8.13;97.58;98896.75;1674709;85;20969;-65
2022/11/05 07:08:34;;;;;;;4.65;4.00;;;;;;;8.17;97.89;98895.66;1675168;84;20996;-65
2022/11/05 07:11:02;;;;;;;4.30;3.90;;;;;;;8.14;97.62;98893.22;1670828;85;21119;-65
2022/11/05 07:13:29;;;;;;;4.40;3.90;;;;;;;8.19;97.63;98893.83;1674789;85;20928;-65
2022/11/05 07:15:55;;;;;;;5.27;4.63;;;;;;;8.20;97.71;98898.10;1664424;84;20922;-65
2022/11/05 07:18:23;;;;;;;4.85;4.45;;;;;;;8.18;97.85;98899.96;1662196;85;22632;-65
2022/11/05 07:20:49;;;;;;;5.28;4.50;;;;;;;8.17;97.77;98899.56;1658538;85;20984;-65
2022/11/05 07:23:16;;;;;;;5.33;4.83;;;;;;;8.11;97.75;98906.38;1664122;85;21845;-65
2022/11/05 07:25:43;;;;;;;5.40;4.85;;;;;;;8.13;97.99;98904.55;1671164;85;21056;-65
2022/11/05 07:28:10;;;;;;;6.40;5.17;;;;;;;8.16;97.91;98901.79;1672026;85;20941;-65
2022/11/05 07:30:37;;;;;;;5.37;4.87;;;;;;;8.16;98.00;98899.19;1662514;84;20963;-65
2022/11/05 07:33:04;;;;;;;6.30;5.70;;;;;;;8.13;98.20;98909.75;1651080;85;20953;-66
2022/11/05 07:35:31;;;;;;;6.33;5.33;;;;;;;8.19;98.07;98909.43;1671478;85;21097;-65
2022/11/05 07:37:57;;;;;;;6.85;5.87;;;;;;;8.21;97.96;98923.20;1671790;84;21460;-65
2022/11/05 07:40:27;;;;;;;7.30;6.23;;;;;;;8.21;98.01;98921.91;1670005;85;20905;-66
2022/11/05 07:42:58;;;;;;;6.53;5.83;;;;;;;8.23;98.02;98923.98;1671059;85;21645;-65
2022/11/05 07:45:26;;;;;;;8.40;6.00;;;;;;;8.27;98.09;98928.09;1666830;85;20937;-66
2022/11/05 07:48:01;;;;;;;6.53;5.35;;;;;;;8.29;98.01;98931.47;1661567;85;21205;-66
2022/11/05 07:50:31;;;;;;;8.38;6.03;;;;;;;8.33;97.97;98934.75;1655832;85;20921;-65
2022/11/05 07:53:08;;;;;;;8.03;6.58;;;;;;;8.33;97.81;98936.52;1654462;85;20933;-66
2022/11/05 07:55:36;;;;;;;8.78;6.67;;;;;;;8.36;97.99;98946.76;1653922;85;20917;-65
2022/11/05 07:58:03;;;;;;;9.38;7.12;;;;;;;8.36;98.06;98944.99;1650873;85;20913;-66
2022/11/05 08:00:32;;;;;;;8.40;6.95;;;;;;;8.37;97.95;98947.13;1658045;84;21040;-66
2022/11/05 08:03:15;;;;;;;13.22;8.05;;;;;;;8.38;97.94;98955.34;1665290;85;21312;-66
2022/11/05 08:05:45;;;;;;;10.60;7.80;;;;;;;8.40;98.07;98958.71;1660669;84;21484;-66
2022/11/05 08:08:15;;;;;;;8.60;6.95;;;;;;;8.44;98.11;98948.55;1654204;85;20957;-66
2022/11/05 08:10:42;;;;;;;7.97;7.15;;;;;;;8.47;98.13;98953.59;1671932;85;20921;-66
2022/11/05 08:13:10;;;;;;;9.08;6.80;;;;;;;8.49;98.08;98951.76;1655458;85;21191;-65
2022/11/05 08:15:37;;;;;;;8.28;7.40;;;;;;;8.51;97.92;98943.39;1654453;85;20965;-67
2022/11/05 08:18:07;;;;;;;10.40;7.65;;;;;;;8.57;98.04;98940.50;1657899;85;21936;-69
2022/11/05 08:20:35;;;;;;;8.18;7.28;;;;;;;8.62;98.17;98943.69;1661160;85;20961;-68
2022/11/05 08:23:01;;;;;;;;;;;;;;;8.71;98.36;98949.73;1676334;85;21637;-68
2022/11/05 08:25:28;;;;;;;12.45;9.43;;;;;;;8.81;98.39;98956.59;1673442;84;21221;-68
2022/11/05 08:28:06;;;;;;;14.63;10.23;;;;;;;8.89;98.37;98956.20;1674456;85;20997;-64
2022/11/05 08:30:33;;;;;;;;;;;;;;;8.95;98.37;98964.52;1676595;85;21423;-65
2022/11/05 08:33:04;;;;;;;11.40;7.53;;;;;;;9.05;98.41;98967.48;1671013;85;20122;-64
2022/11/05 08:35:33;;;;;;;8.60;7.25;;;;;;;9.11;98.35;98967.16;1664354;85;21787;-63
2022/11/05 08:38:02;;;;;;;9.23;8.05;;;;;;;9.14;98.39;98970.90;1675099;85;21058;-63
2022/11/05 08:40:32;;;;;;;8.00;6.50;;;;;;;9.22;98.35;98967.06;1665730;85;21467;-63
2022/11/05 08:43:02;;;;;;;9.70;6.50;;;;;;;9.29;98.44;98967.09;1671020;85;20949;-63
2022/11/05 08:45:29;;;;;;;6.83;6.12;;;;;;;9.37;98.39;98980.55;1667267;85;20949;-63
2022/11/05 08:48:05;;;;;;;8.05;6.67;;;;;;;9.37;98.28;98981.84;1660628;85;20937;-62
2022/11/05 08:50:33;;;;;;;7.93;5.90;;;;;;;9.37;98.13;98981.38;1658437;85;21954;-63
2022/11/05 08:52:59;;;;;;;;;;;;;;;9.35;98.00;98975.87;1668108;85;21669;-61
2022/11/05 08:55:27;;;;;;;8.68;6.45;;;;;;;9.29;97.86;98980.11;1668670;85;20093;-62
2022/11/05 08:58:04;;;;;;;6.92;5.62;;;;;;;9.27;98.08;98984.55;1668916;85;20890;-60
2022/11/05 09:00:33;;;;;;;;;;;;;;;9.24;98.13;98991.23;1667716;85;20949;-62
2022/11/05 09:03:02;;;;;;;7.37;6.05;;;;;;;9.24;98.23;98999.88;1659947;85;21048;-62
2022/11/05 09:05:36;;;;;;;9.73;5.85;;;;;;;9.19;98.20;99011.88;1660097;85;21561;-63
2022/11/05 09:07:59;;;;;;;9.03;5.62;;;;;;;9.21;98.47;99010.94;1673887;85;20965;-62
2022/11/05 09:10:27;;;;;;;8.65;5.37;;;;;;;9.22;98.41;99003.52;1668533;85;21063;-61
2022/11/05 09:12:53;;;;;;;4.85;4.00;;;;;;;9.19;98.35;99005.83;1658932;85;20955;-62
2022/11/05 09:15:22;;;;;;;5.33;3.70;;;;;;;9.13;98.16;99009.59;1664846;85;21071;-62
2022/11/05 09:17:48;;;;;;;3.83;3.42;;;;;;;9.00;98.15;99011.16;1661419;85;20901;-62
2022/11/05 09:20:15;;;;;;;6.50;3.17;;;;;;;8.98;98.33;99015.59;1664828;85;20953;-62
2022/11/05 09:22:42;;;;;;;4.03;3.25;;;;;;;8.92;98.26;99023.72;1668798;85;20882;-63
2022/11/05 09:25:09;;;;;;;6.90;3.92;;;;;;;8.87;98.23;99028.32;1661357;85;21862;-62
2022/11/05 09:27:35;;;;;;;4.42;2.87;;;;;;;8.81;98.22;99028.64;1667319;84;21080;-62
2022/11/05 09:30:03;;;;;;;5.35;3.02;;;;;;;8.78;98.55;99026.20;1661416;84;20925;-62
2022/11/05 09:32:31;;;;;;;;;;;;;;;8.78;98.54;99015.78;1671310;85;20918;-63
2022/11/05 09:34:59;;;;;;;4.92;2.50;;;;;;;8.81;98.78;99033.84;1665539;85;20123;-64
2022/11/05 09:37:27;;;;;;;3.60;2.25;;;;;;;8.84;98.79;99032.39;1670745;85;20882;-63
2022/11/05 09:39:53;;;;;;;4.65;2.27;;;;;;;8.92;98.94;99035.44;1654459;84;21164;-63
2022/11/05 09:42:24;;;;;;;3.50;2.02;;;;;;;9.03;98.90;99034.89;1669699;85;20890;-63
2022/11/05 09:44:59;;;;;;;1.82;1.32;;;;;;;9.13;98.85;99039.55;1673153;85;21450;-63
2022/11/05 09:47:33;;;;;;;3.30;1.67;;;;;;;9.17;98.74;99044.96;1674363;85;20923;-63
2022/11/05 09:50:05;;;;;;;1.98;1.30;;;;;;;9.22;98.40;99054.31;1668826;85;20965;-63
2022/11/05 09:52:34;;;;;;;3.65;1.67;;;;;;;9.25;98.63;99072.39;1662719;85;21142;-63
2022/11/05 09:55:03;;;;;;;4.30;1.50;;;;;;;9.29;98.64;99077.80;1674999;85;20944;-63
2022/11/05 09:57:50;;;;;;;2.65;1.30;;;;;;;9.35;98.52;99078.78;1674764;84;21056;-63
2022/11/05 10:00:17;;;;;;;6.25;2.60;;;;;;;9.38;98.46;99082.52;1662724;85;20885;-64
2022/11/05 10:03:01;;;;;;;1.60;1.02;;;;;;;9.46;98.53;99079.05;1670483;85;20976;-66
2022/11/05 10:05:28;;;;;;;3.47;1.42;;;;;;;9.51;98.26;99077.05;1674287;85;21048;-67
2022/11/05 10:08:05;;;;;;;3.05;1.32;;;;;;;9.49;98.15;99076.28;1665326;85;20941;-67
2022/11/05 10:10:42;;;;;;;6.15;1.07;;;;;;;9.57;98.64;99078.49;1668088;85;20941;-67
2022/11/05 10:13:44;;;;;;;3.67;1.00;;;;;;;9.70;98.36;99094.33;1661825;84;20981;-67
2022/11/05 10:16:34;;;;;;;3.00;1.00;;;;;;;9.78;98.24;99094.30;1668964;84;20925;-66
2022/11/05 10:19:09;;;;;;;2.92;0.70;;;;;;;9.80;97.76;99103.31;1661435;85;21274;-64
2022/11/05 10:21:37;;;;;;;6.58;1.15;;;;;;;9.85;97.66;99113.05;1658102;85;21622;-66
2022/11/05 10:24:13;;;;;;;2.17;0.80;;;;;;;9.93;97.95;99123.07;1654972;85;21582;-66
2022/11/05 10:26:40;;;;;;;1.62;0.85;;;;;;;9.97;97.98;99128.48;1664127;85;20878;-67
2022/11/05 10:29:10;;;;;;;4.15;1.10;;;;;;;10.01;97.79;99123.03;1656521;84;20968;-66
2022/11/05 10:31:37;;;;;;;5.85;0.78;;;;;;;10.04;97.83;99126.77;1664664;85;21056;-66
2022/11/05 10:34:06;;;;;;;4.65;1.00;;;;;;;10.09;97.78;99128.67;1659605;84;21033;-66
2022/11/05 10:36:36;;;;;;;1.92;0.90;;;;;;;10.04;97.58;99128.08;1655832;85;21451;-65
2022/11/05 10:39:16;;;;;;;2.17;0.72;;;;;;;9.99;97.22;99135.30;1657897;84;20933;-65
2022/11/05 10:42:05;;;;;;;1.42;0.70;;;;;;;9.96;97.56;99140.69;1661452;85;20976;-65
2022/11/05 10:45:13;;;;;;;1.65;0.90;;;;;;;9.97;97.59;99137.17;1660262;85;21106;-65
2022/11/05 10:47:53;;;;;;;4.08;1.00;;;;;;;10.00;97.76;99142.22;1657885;85;20976;-65
2022/11/05 10:50:27;;;;;;;2.72;1.00;;;;;;;10.05;97.48;99144.12;1658381;85;20965;-65
2022/11/05 10:53:00;;;;;;;2.77;0.85;;;;;;;9.95;96.71;99141.63;1657198;85;20996;-65
2022/11/05 10:55:32;;;;;;;1.40;0.50;;;;;;;9.80;96.31;99147.64;1656691;85;20953;-65
2022/11/05 10:58:18;;;;;;;1.37;0.70;;;;;;;9.67;96.71;99147.47;1659899;85;21126;-64
2022/11/05 11:00:53;;;;;;;1.92;0.80;;;;;;;9.69;97.34;99153.89;1656335;85;21459;-65
2022/11/05 11:03:48;;;;;;;3.25;1.00;;;;;;;9.76;97.42;99165.22;1660627;85;20964;-66
2022/11/05 11:06:28;;;;;;;1.80;0.82;;;;;;;9.82;97.26;99175.79;1657924;85;21034;-66
2022/11/05 11:08:59;;;;;;;5.65;1.10;;;;;;;9.88;97.30;99173.32;1658419;85;20996;-66
2022/11/05 11:11:36;;;;;;;1.87;0.98;;;;;;;9.97;97.36;99168.47;1657138;85;21809;-66
2022/11/05 11:14:16;;;;;;;5.17;1.57;;;;;;;10.01;96.92;99170.45;1658261;85;20953;-65
2022/11/05 11:16:46;;;;;;;1.85;0.55;;;;;;;10.07;96.87;99174.86;1660817;84;21407;-65
2022/11/05 11:19:30;;;;;;;3.65;1.02;;;;;;;10.14;96.29;99174.52;1656716;85;20929;-65
2022/11/05 11:22:09;;;;;;;2.80;1.10;;;;;;;10.17;96.66;99166.55;1654261;85;20898;-65
2022/11/05 11:24:46;;;;;;;1.35;0.60;;;;;;;10.19;96.12;99172.51;1660913;85;21902;-66
2022/11/05 11:27:19;;;;;;;3.02;1.00;;;;;;;10.37;96.56;99174.16;1656962;85;20930;-66
2022/11/05 11:29:59;;;;;;;0.93;0.60;;;;;;;10.45;96.02;99177.19;1656288;84;20929;-65
2022/11/05 11:32:36;;;;;;;3.00;0.90;;;;;;;10.48;96.32;99178.79;1654852;84;21015;-65
2022/11/05 11:35:03;;;;;;;;;;;;;;;10.62;96.37;99180.63;1658093;85;21001;-66
2022/11/05 11:37:34;;;;;;;3.20;1.05;;;;;;;10.73;96.11;99191.31;1657038;85;23284;-65
2022/11/05 11:40:18;;;;;;;3.77;0.95;;;;;;;10.71;95.96;99193.16;1656894;85;20933;-65
2022/11/05 11:42:55;;;;;;;4.25;1.77;;;;;;;10.70;96.02;99200.63;1657031;85;21487;-64
2022/11/05 11:45:27;;;;;;;;;;;;;;;10.81;96.51;99204.78;1659169;85;21104;-65
2022/11/05 11:47:56;;;;;;;5.33;1.67;;;;;;;10.84;95.02;99196.77;1651716;85;20128;-65
2022/11/05 11:50:44;;;;;;;4.40;0.90;;;;;;;10.84;95.02;99196.77;1654299;85;21494;-65
2022/11/05 11:53:25;;;;;;;3.85;0.95;;;;;;;10.78;95.05;99197.09;1652244;85;20934;-65
2022/11/05 11:56:02;;;;;;;3.45;1.05;;;;;;;10.69;94.83;99198.92;1653803;84;20960;-65
2022/11/05 11:58:48;;;;;;;3.37;1.10;;;;;;;10.71;95.04;99206.22;1650760;84;81648;-65
2022/11/05 12:01:28;;;;;;;4.12;1.10;;;;;;;10.68;95.28;99210.31;1658915;84;20992;-65
2022/11/05 12:04:41;;;;;;;2.83;1.25;;;;;;;10.71;95.17;99220.11;1674111;84;21086;-65
2022/11/05 12:07:31;;;;;;;6.28;1.30;;;;;;;10.70;94.79;99224.97;1670640;84;20980;-65
2022/11/05 12:10:12;;;;;;;4.65;1.30;;;;;;;10.60;94.73;99232.91;1663975;84;20977;-65
2022/11/05 12:12:47;;;;;;;6.15;1.80;;;;;;;10.65;94.81;99230.06;1636197;86;21021;-65
2022/11/05 12:15:53;;;;;;;6.33;1.70;;;;;;;10.60;94.27;99239.91;1646309;86;20978;-65
2022/11/05 12:19:01;;;;;;;4.77;1.40;;;;;;;10.51;94.40;99233.43;1643075;86;21755;-65
2022/11/05 12:22:18;;;;;;;8.33;2.00;;;;;;;10.51;94.19;99243.88;1646948;86;22210;-65
2022/11/05 12:24:50;;;;;;;9.95;2.22;;;;;;;10.49;94.24;99242.63;1647252;86;20919;-66
2022/11/05 12:27:37;;;;;;;6.25;2.08;;;;;;;10.46;94.10;99244.11;1638635;86;21021;-64
2022/11/05 12:30:20;;;;;;;9.18;1.90;;;;;;;10.52;94.29;99243.77;1651307;85;21641;-65
2022/11/05 12:33:22;;;;;;;10.70;2.85;;;;;;;10.55;94.15;99251.06;1642318;86;21218;-65
2022/11/05 12:36:19;;;;;;;6.80;1.50;;;;;;;10.52;94.26;99247.69;1645825;86;22016;-66
2022/11/05 12:39:29;;;;;;;7.25;3.00;;;;;;;10.58;94.04;99245.67;1648874;86;21617;-65
2022/11/05 12:42:09;;;;;;;4.53;1.52;;;;;;;10.56;94.29;99251.43;1650425;86;20943;-65
2022/11/05 12:45:13;;;;;;;5.83;1.70;;;;;;;10.61;94.42;99249.41;1645283;86;21054;-66
2022/11/05 12:47:46;;;;;;;8.90;2.55;;;;;;;10.68;94.20;99263.83;1641115;85;21285;-65
2022/11/05 12:50:39;;;;;;;8.75;2.47;;;;;;;10.65;94.27;99265.31;1669151;84;21022;-65
2022/11/05 12:53:47;;;;;;;6.03;1.95;;;;;;;10.66;94.23;99270.90;1675708;84;21529;-66